PWSweather.com
Personal Weather Stations
Station Observations
KFLPOINC2
Deerwood Estates, Poinciana, FL 34758

Deerwood EstatesPoinciana, FL 34758

Lat: 28.161417, Lon: -81.477557

Elevation: 72

Station Type: Ambient Weather WS 2080

High Low Average
Temperature 70.9°F21.6°C 61.9°F16.6°C 67.4°F19.7°C
Dew Point 65.0°F18.3°C 56.5°F13.6°C 60.6°F15.9°C
Winds 14.5 mph 23.3 kmh 1.6 mph 2.6 kmh 7.0 mph SW11.3 kmh SW
Wind Gusts 19.0 mph30.6 kmh 3.1 mph5.0 kmh 10.0 mph16.1 kmh
Humidity 87% 71% 79%
Pressure 29.70 in1005.8 mb 29.50 in999.0 mb -
Precipitation 0.12 in3.0 mm - -
Hour Temp Dew Point Humidity Winds Wind Gusts Pressure Precip Precip Rate Daily Precip Total
12:30 AM 62.4°F16.9°C 56.5°F13.6°C 81% 1.6 mph SW2.6 kmh SW 3.1 mph5.0 kmh 29.70 in1005.8 mb 0.00 in0.0 mm 0.00 in/hr0.0 mm/hr 0.00 in0.0 mm
12:45 AM 62.4°F16.9°C 56.5°F13.6°C 81% 1.6 mph SW2.6 kmh SW 3.1 mph5.0 kmh 29.70 in1005.8 mb 0.00 in0.0 mm 0.00 in/hr0.0 mm/hr 0.00 in0.0 mm
01:00 AM 62.4°F16.9°C 56.5°F13.6°C 81% 1.6 mph SW2.6 kmh SW 3.1 mph5.0 kmh 29.70 in1005.8 mb 0.00 in0.0 mm 0.00 in/hr0.0 mm/hr 0.00 in0.0 mm
01:15 AM 62.4°F16.9°C 56.5°F13.6°C 81% 1.6 mph SW2.6 kmh SW 3.1 mph5.0 kmh 29.70 in1005.8 mb 0.00 in0.0 mm 0.00 in/hr0.0 mm/hr 0.00 in0.0 mm
01:30 AM 62.4°F16.9°C 56.5°F13.6°C 81% 1.6 mph SW2.6 kmh SW 3.1 mph5.0 kmh 29.70 in1005.8 mb 0.00 in0.0 mm 0.00 in/hr0.0 mm/hr 0.00 in0.0 mm
01:45 AM 62.4°F16.9°C 56.5°F13.6°C 81% 1.6 mph SW2.6 kmh SW 3.1 mph5.0 kmh 29.70 in1005.8 mb 0.00 in0.0 mm 0.00 in/hr0.0 mm/hr 0.00 in0.0 mm
02:00 AM 62.4°F16.9°C 56.5°F13.6°C 81% 1.6 mph SW2.6 kmh SW 3.1 mph5.0 kmh 29.70 in1005.8 mb 0.00 in0.0 mm 0.00 in/hr0.0 mm/hr 0.00 in0.0 mm
02:15 AM 62.4°F16.9°C 56.5°F13.6°C 81% 1.6 mph SW2.6 kmh SW 3.1 mph5.0 kmh 29.70 in1005.8 mb 0.00 in0.0 mm 0.00 in/hr0.0 mm/hr 0.00 in0.0 mm
02:30 AM 62.4°F16.9°C 56.5°F13.6°C 81% 1.6 mph SW2.6 kmh SW 3.1 mph5.0 kmh 29.70 in1005.8 mb 0.00 in0.0 mm 0.00 in/hr0.0 mm/hr 0.00 in0.0 mm
02:45 AM 62.4°F16.9°C 56.5°F13.6°C 81% 1.6 mph SW2.6 kmh SW 3.1 mph5.0 kmh 29.70 in1005.8 mb 0.00 in0.0 mm 0.00 in/hr0.0 mm/hr 0.00 in0.0 mm
03:00 AM 62.4°F16.9°C 56.5°F13.6°C 81% 1.6 mph SW2.6 kmh SW 3.1 mph5.0 kmh 29.70 in1005.8 mb 0.00 in0.0 mm 0.00 in/hr0.0 mm/hr 0.00 in0.0 mm
03:15 AM 62.4°F16.9°C 56.5°F13.6°C 81% 1.6 mph SW2.6 kmh SW 3.1 mph5.0 kmh 29.70 in1005.8 mb 0.00 in0.0 mm 0.00 in/hr0.0 mm/hr 0.00 in0.0 mm
03:30 AM 62.4°F16.9°C 56.5°F13.6°C 81% 1.6 mph SW2.6 kmh SW 3.1 mph5.0 kmh 29.70 in1005.8 mb 0.00 in0.0 mm 0.00 in/hr0.0 mm/hr 0.00 in0.0 mm
03:45 AM 62.4°F16.9°C 56.5°F13.6°C 81% 1.6 mph SW2.6 kmh SW 3.1 mph5.0 kmh 29.70 in1005.8 mb 0.00 in0.0 mm 0.00 in/hr0.0 mm/hr 0.00 in0.0 mm
04:00 AM 62.4°F16.9°C 56.5°F13.6°C 81% 1.6 mph SW2.6 kmh SW 3.1 mph5.0 kmh 29.70 in1005.8 mb 0.00 in0.0 mm 0.00 in/hr0.0 mm/hr 0.00 in0.0 mm
04:15 AM 62.4°F16.9°C 56.5°F13.6°C 81% 1.6 mph SW2.6 kmh SW 3.1 mph5.0 kmh 29.70 in1005.8 mb 0.00 in0.0 mm 0.00 in/hr0.0 mm/hr 0.00 in0.0 mm
07:38 AM 66.2°F19.0°C 59.5°F15.3°C 79% 9.2 mph S14.8 kmh S 11.4 mph18.3 kmh 29.52 in999.7 mb 0.00 in0.0 mm 0.00 in/hr0.0 mm/hr 0.00 in0.0 mm
07:51 AM 61.9°F16.6°C 58.0°F14.4°C 87% 5.4 mph S8.7 kmh S 7.6 mph12.2 kmh 29.61 in1002.7 mb 0.00 in0.0 mm 0.00 in/hr0.0 mm/hr 0.00 in0.0 mm
08:00 AM 66.4°F19.1°C 59.3°F15.2°C 78% 11.4 mph SW18.3 kmh SW 19.0 mph30.6 kmh 29.51 in999.3 mb 0.00 in0.0 mm 0.00 in/hr0.0 mm/hr 0.00 in0.0 mm
08:15 AM 66.0°F18.9°C 59.3°F15.2°C 79% 9.8 mph SW15.8 kmh SW 13.6 mph21.9 kmh 29.53 in1000.0 mb 0.00 in0.0 mm 0.00 in/hr0.0 mm/hr 0.00 in0.0 mm
08:30 AM 66.0°F18.9°C 59.0°F15.0°C 78% 9.8 mph WSW15.8 kmh WSW 14.5 mph23.3 kmh 29.54 in1000.3 mb 0.00 in0.0 mm 0.00 in/hr0.0 mm/hr 0.00 in0.0 mm
08:45 AM 66.2°F19.0°C 58.8°F14.9°C 77% 9.2 mph SW14.8 kmh SW 14.5 mph23.3 kmh 29.54 in1000.3 mb 0.00 in0.0 mm 0.00 in/hr0.0 mm/hr 0.00 in0.0 mm
09:00 AM 66.4°F19.1°C 59.0°F15.0°C 77% 6.9 mph SW11.1 kmh SW 16.8 mph27.0 kmh 29.55 in1000.7 mb 0.00 in0.0 mm 0.00 in/hr0.0 mm/hr 0.00 in0.0 mm
09:15 AM 66.4°F19.1°C 59.0°F15.0°C 77% 6.0 mph WSW9.7 kmh WSW 17.4 mph28.0 kmh 29.56 in1001.0 mb 0.00 in0.0 mm 0.00 in/hr0.0 mm/hr 0.00 in0.0 mm
09:30 AM 66.6°F19.2°C 59.1°F15.1°C 77% 9.2 mph WSW14.8 kmh WSW 14.5 mph23.3 kmh 29.55 in1000.7 mb 0.00 in0.0 mm 0.00 in/hr0.0 mm/hr 0.00 in0.0 mm
10:00 AM 67.1°F19.5°C 59.7°F15.4°C 77% 3.8 mph WSW6.1 kmh WSW 7.6 mph12.2 kmh 29.57 in1001.4 mb 0.00 in0.0 mm 0.00 in/hr0.0 mm/hr 0.00 in0.0 mm
10:15 AM 67.8°F19.9°C 60.0°F15.6°C 76% 6.9 mph WSW11.1 kmh WSW 10.7 mph17.2 kmh 29.57 in1001.4 mb 0.00 in0.0 mm 0.00 in/hr0.0 mm/hr 0.00 in0.0 mm
10:30 AM 68.2°F20.1°C 60.0°F15.6°C 75% 8.3 mph WSW13.4 kmh WSW 15.2 mph24.5 kmh 29.58 in1001.7 mb 0.00 in0.0 mm 0.00 in/hr0.0 mm/hr 0.00 in0.0 mm
10:45 AM 68.2°F20.1°C 60.0°F15.6°C 75% 8.3 mph WSW13.4 kmh WSW 15.2 mph24.5 kmh 29.58 in1001.7 mb 0.00 in0.0 mm 0.00 in/hr0.0 mm/hr 0.00 in0.0 mm
11:00 AM 68.2°F20.1°C 60.0°F15.6°C 75% 8.3 mph WSW13.4 kmh WSW 15.2 mph24.5 kmh 29.58 in1001.7 mb 0.00 in0.0 mm 0.00 in/hr0.0 mm/hr 0.00 in0.0 mm
11:15 AM 68.2°F20.1°C 60.0°F15.6°C 75% 8.3 mph WSW13.4 kmh WSW 15.2 mph24.5 kmh 29.58 in1001.7 mb 0.00 in0.0 mm 0.00 in/hr0.0 mm/hr 0.00 in0.0 mm
11:30 AM 68.2°F20.1°C 60.0°F15.6°C 75% 8.3 mph WSW13.4 kmh WSW 15.2 mph24.5 kmh 29.58 in1001.7 mb 0.00 in0.0 mm 0.00 in/hr0.0 mm/hr 0.00 in0.0 mm
11:45 AM 70.9°F21.6°C 61.0°F16.1°C 71% 14.5 mph SW23.3 kmh SW 15.2 mph24.5 kmh 29.58 in1001.7 mb 0.00 in0.0 mm 0.00 in/hr0.0 mm/hr 0.00 in0.0 mm
12:00 PM 70.9°F21.6°C 61.0°F16.1°C 71% 14.5 mph SW23.3 kmh SW 15.2 mph24.5 kmh 29.58 in1001.7 mb 0.00 in0.0 mm 0.00 in/hr0.0 mm/hr 0.00 in0.0 mm
12:15 PM 70.9°F21.6°C 61.0°F16.1°C 71% 14.5 mph SW23.3 kmh SW 15.2 mph24.5 kmh 29.58 in1001.7 mb 0.00 in0.0 mm 0.00 in/hr0.0 mm/hr 0.00 in0.0 mm
12:30 PM 70.9°F21.6°C 61.0°F16.1°C 71% 14.5 mph SW23.3 kmh SW 15.2 mph24.5 kmh 29.58 in1001.7 mb 0.00 in0.0 mm 0.00 in/hr0.0 mm/hr 0.00 in0.0 mm
12:45 PM 70.9°F21.6°C 61.0°F16.1°C 71% 14.5 mph SW23.3 kmh SW 15.2 mph24.5 kmh 29.58 in1001.7 mb 0.00 in0.0 mm 0.00 in/hr0.0 mm/hr 0.00 in0.0 mm
01:00 PM 70.9°F21.6°C 61.0°F16.1°C 71% 14.5 mph SW23.3 kmh SW 15.2 mph24.5 kmh 29.58 in1001.7 mb 0.00 in0.0 mm 0.00 in/hr0.0 mm/hr 0.00 in0.0 mm
01:15 PM 70.9°F21.6°C 61.0°F16.1°C 71% 14.5 mph SW23.3 kmh SW 15.2 mph24.5 kmh 29.58 in1001.7 mb 0.00 in0.0 mm 0.00 in/hr0.0 mm/hr 0.00 in0.0 mm
01:30 PM 70.9°F21.6°C 61.0°F16.1°C 71% 14.5 mph SW23.3 kmh SW 15.2 mph24.5 kmh 29.58 in1001.7 mb 0.00 in0.0 mm 0.00 in/hr0.0 mm/hr 0.00 in0.0 mm
01:45 PM 70.9°F21.6°C 61.0°F16.1°C 71% 14.5 mph SW23.3 kmh SW 15.2 mph24.5 kmh 29.58 in1001.7 mb 0.00 in0.0 mm 0.00 in/hr0.0 mm/hr 0.00 in0.0 mm
02:00 PM 70.9°F21.6°C 61.0°F16.1°C 71% 14.5 mph SW23.3 kmh SW 15.2 mph24.5 kmh 29.58 in1001.7 mb 0.00 in0.0 mm 0.00 in/hr0.0 mm/hr 0.00 in0.0 mm
02:15 PM 70.9°F21.6°C 61.0°F16.1°C 71% 14.5 mph SW23.3 kmh SW 15.2 mph24.5 kmh 29.58 in1001.7 mb 0.00 in0.0 mm 0.00 in/hr0.0 mm/hr 0.00 in0.0 mm
02:30 PM 69.6°F20.9°C 64.3°F17.9°C 83% 4.5 mph W7.2 kmh W 15.2 mph24.5 kmh 29.51 in999.3 mb 0.12 in3.0 mm 0.48 in/hr12.2 mm/hr 0.12 in3.0 mm
02:45 PM 70.7°F21.5°C 65.0°F18.3°C 82% 2.2 mph W3.5 kmh W 6.9 mph11.1 kmh 29.51 in999.3 mb 0.12 in3.0 mm 0.00 in/hr0.0 mm/hr 0.12 in3.0 mm
03:00 PM 70.5°F21.4°C 64.8°F18.2°C 82% 6.0 mph WSW9.7 kmh WSW 8.3 mph13.4 kmh 29.50 in999.0 mb 0.12 in3.0 mm 0.00 in/hr0.0 mm/hr 0.12 in3.0 mm
03:15 PM 70.5°F21.4°C 64.8°F18.2°C 82% 6.0 mph WSW9.7 kmh WSW 8.3 mph13.4 kmh 29.50 in999.0 mb 0.12 in3.0 mm 0.00 in/hr0.0 mm/hr 0.12 in3.0 mm
03:30 PM 70.5°F21.4°C 64.8°F18.2°C 82% 6.0 mph WSW9.7 kmh WSW 8.3 mph13.4 kmh 29.50 in999.0 mb 0.00 in0.0 mm 0.00 in/hr0.0 mm/hr 0.12 in3.0 mm
03:45 PM 70.5°F21.4°C 64.8°F18.2°C 82% 6.0 mph WSW9.7 kmh WSW 8.3 mph13.4 kmh 29.50 in999.0 mb 0.00 in0.0 mm 0.00 in/hr0.0 mm/hr 0.12 in3.0 mm
04:00 PM 70.5°F21.4°C 64.8°F18.2°C 82% 6.0 mph WSW9.7 kmh WSW 8.3 mph13.4 kmh 29.50 in999.0 mb 0.00 in0.0 mm 0.00 in/hr0.0 mm/hr 0.12 in3.0 mm
04:15 PM 70.5°F21.4°C 64.8°F18.2°C 82% 6.0 mph WSW9.7 kmh WSW 8.3 mph13.4 kmh 29.50 in999.0 mb 0.00 in0.0 mm 0.00 in/hr0.0 mm/hr 0.12 in3.0 mm
04:30 PM 70.5°F21.4°C 64.8°F18.2°C 82% 6.0 mph WSW9.7 kmh WSW 8.3 mph13.4 kmh 29.50 in999.0 mb 0.00 in0.0 mm 0.00 in/hr0.0 mm/hr 0.12 in3.0 mm
04:45 PM 70.5°F21.4°C 64.8°F18.2°C 82% 6.0 mph WSW9.7 kmh WSW 8.3 mph13.4 kmh 29.50 in999.0 mb 0.00 in0.0 mm 0.00 in/hr0.0 mm/hr 0.12 in3.0 mm
05:00 PM 70.5°F21.4°C 64.8°F18.2°C 82% 6.0 mph WSW9.7 kmh WSW 8.3 mph13.4 kmh 29.50 in999.0 mb 0.00 in0.0 mm 0.00 in/hr0.0 mm/hr 0.12 in3.0 mm
05:15 PM 70.5°F21.4°C 64.8°F18.2°C 82% 6.0 mph WSW9.7 kmh WSW 8.3 mph13.4 kmh 29.50 in999.0 mb 0.00 in0.0 mm 0.00 in/hr0.0 mm/hr 0.12 in3.0 mm
05:30 PM 70.5°F21.4°C 64.8°F18.2°C 82% 6.0 mph WSW9.7 kmh WSW 8.3 mph13.4 kmh 29.50 in999.0 mb 0.00 in0.0 mm 0.00 in/hr0.0 mm/hr 0.12 in3.0 mm
05:45 PM 70.5°F21.4°C 64.8°F18.2°C 82% 6.0 mph WSW9.7 kmh WSW 8.3 mph13.4 kmh 29.50 in999.0 mb 0.00 in0.0 mm 0.00 in/hr0.0 mm/hr 0.12 in3.0 mm
06:15 PM 70.5°F21.4°C 64.8°F18.2°C 82% 6.0 mph WSW9.7 kmh WSW 8.3 mph13.4 kmh 29.50 in999.0 mb 0.00 in0.0 mm 0.00 in/hr0.0 mm/hr 0.12 in3.0 mm
06:30 PM 70.5°F21.4°C 64.8°F18.2°C 82% 6.0 mph WSW9.7 kmh WSW 8.3 mph13.4 kmh 29.50 in999.0 mb 0.00 in0.0 mm 0.00 in/hr0.0 mm/hr 0.12 in3.0 mm
06:45 PM 70.5°F21.4°C 64.8°F18.2°C 82% 6.0 mph WSW9.7 kmh WSW 8.3 mph13.4 kmh 29.50 in999.0 mb 0.00 in0.0 mm 0.00 in/hr0.0 mm/hr 0.12 in3.0 mm
07:00 PM 70.5°F21.4°C 64.8°F18.2°C 82% 6.0 mph WSW9.7 kmh WSW 8.3 mph13.4 kmh 29.50 in999.0 mb 0.00 in0.0 mm 0.00 in/hr0.0 mm/hr 0.12 in3.0 mm
07:15 PM 70.5°F21.4°C 64.8°F18.2°C 82% 6.0 mph WSW9.7 kmh WSW 8.3 mph13.4 kmh 29.50 in999.0 mb 0.00 in0.0 mm 0.00 in/hr0.0 mm/hr 0.12 in3.0 mm
07:30 PM 70.5°F21.4°C 64.8°F18.2°C 82% 6.0 mph WSW9.7 kmh WSW 8.3 mph13.4 kmh 29.50 in999.0 mb 0.00 in0.0 mm 0.00 in/hr0.0 mm/hr 0.12 in3.0 mm
07:45 PM 70.5°F21.4°C 64.8°F18.2°C 82% 6.0 mph WSW9.7 kmh WSW 8.3 mph13.4 kmh 29.50 in999.0 mb 0.00 in0.0 mm 0.00 in/hr0.0 mm/hr 0.12 in3.0 mm
08:00 PM 70.5°F21.4°C 64.8°F18.2°C 82% 6.0 mph WSW9.7 kmh WSW 8.3 mph13.4 kmh 29.50 in999.0 mb 0.00 in0.0 mm 0.00 in/hr0.0 mm/hr 0.12 in3.0 mm